Terminal Aerodrome Forecast
Issued by NWS

Home | Current Version | Previous Version | Text Only | Print | Product List | Glossary Off
Versions: 1 2 3 4 5 6 7 8 9 10 11 12 13 14 15 16 17 18 19 20 21 22 23 24 25 26 27 28 29 30 31 32 33 34 35 36 37 38 39 40

000
FTUS43 KGRB 241136
TAFATW
TAF
KATW 241136Z 2412/2512 05018G26KT 2SM -SNPL VCTS OVC008CB
      TEMPO 2412/2415 3/4SM -FZRASN OVC005
     FM241500 03020G30KT 3SM -FZDZSN OVC008
     FM250000 01013G23KT 2SM -FZDZSN OVC008
     FM250500 35012G21KT 3SM -SN OVC005
     FM250800 32010G18KT 6SM -SN OVC012=

USA.gov is the U.S. government's official web portal to all federal, state and local government web resources and services.